Time;durP1;ratioP1;P1;durP2;ratioP2;P2;SDS_P1;SDS_P2;PMS_P1;PMS_P2;Temp;Humidity;BMP_temperature;BMP_pressure;BME280_temperature;BME280_humidity;BME280_pressure;Samples;Min_cycle;Max_cycle;Signal;HPM_P1;HPM_P2
2023/03/09 00:01:36;;;;;;;;;;;1.80;99.90;;;;;;5113065;28;20047;-67
2023/03/09 00:04:04;;;;;;;11.77;7.18;;;1.70;99.90;;;;;;5112071;28;19919;-67
2023/03/09 00:06:31;;;;;;;15.35;8.43;;;1.70;99.90;;;;;;5112465;28;20058;-67
2023/03/09 00:08:58;;;;;;;12.38;7.35;;;1.70;99.90;;;;;;5113956;28;20047;-67
2023/03/09 00:11:26;;;;;;;14.15;7.75;;;1.70;99.90;;;;;;5109856;28;20488;-66
2023/03/09 00:13:53;;;;;;;13.60;7.65;;;1.70;99.90;;;;;;5112673;28;20062;-67
2023/03/09 00:16:22;;;;;;;13.95;8.20;;;1.70;99.90;;;;;;5113659;28;20487;-67
2023/03/09 00:18:51;;;;;;;11.50;6.97;;;1.70;99.90;;;;;;5111963;28;20101;-68
2023/03/09 00:21:34;;;;;;;12.65;7.57;;;1.70;99.90;;;;;;5112054;28;20047;-68
2023/03/09 00:24:02;;;;;;;10.60;7.20;;;1.70;99.90;;;;;;5110710;28;20135;-67
2023/03/09 00:26:30;;;;;;;13.43;8.00;;;1.70;99.90;;;;;;5113585;28;20150;-68
2023/03/09 00:28:57;;;;;;;12.82;7.47;;;1.70;99.90;;;;;;5113496;28;20403;-68
2023/03/09 00:31:24;;;;;;;11.27;7.45;;;1.70;99.90;;;;;;5112466;28;20043;-69
2023/03/09 00:33:51;;;;;;;11.88;7.07;;;1.70;99.90;;;;;;5112398;28;20100;-67
2023/03/09 00:36:18;;;;;;;13.10;7.55;;;1.70;99.90;;;;;;5112172;28;20051;-68
2023/03/09 00:38:50;;;;;;;13.82;7.05;;;1.70;99.90;;;;;;5111679;28;20523;-65
2023/03/09 00:41:17;;;;;;;12.45;7.78;;;1.80;99.90;;;;;;5110693;28;20043;-65
2023/03/09 00:43:46;;;;;;;13.10;7.55;;;1.70;99.90;;;;;;5111395;28;20055;-64
2023/03/09 00:46:14;;;;;;;14.13;8.02;;;1.70;99.90;;;;;;5109439;28;20055;-64
2023/03/09 00:48:41;;;;;;;16.15;8.30;;;1.70;99.90;;;;;;5113196;28;20051;-65
2023/03/09 00:51:09;;;;;;;12.65;7.97;;;1.70;99.90;;;;;;5111965;28;20453;-64
2023/03/09 00:53:37;;;;;;;12.15;7.70;;;1.70;99.90;;;;;;5111331;28;20100;-65
2023/03/09 00:56:05;;;;;;;12.13;7.90;;;1.80;99.90;;;;;;5112993;28;20043;-64
2023/03/09 00:58:33;;;;;;;15.02;9.00;;;1.70;99.90;;;;;;5109665;28;20048;-64
2023/03/09 01:01:01;;;;;;;16.00;9.05;;;1.70;99.90;;;;;;5112201;28;20058;-65
2023/03/09 01:03:28;;;;;;;15.80;8.82;;;1.70;99.90;;;;;;5110753;28;20100;-65
2023/03/09 01:05:56;;;;;;;12.80;7.97;;;1.60;99.90;;;;;;5112796;28;20054;-65
2023/03/09 01:08:23;;;;;;;14.82;9.07;;;1.70;99.90;;;;;;5111041;28;20487;-65
2023/03/09 01:10:50;;;;;;;16.48;8.63;;;1.60;99.90;;;;;;5112439;28;20043;-64
2023/03/09 01:13:17;;;;;;;15.65;8.43;;;1.60;99.90;;;;;;5111149;28;20036;-64
2023/03/09 01:15:44;;;;;;;14.80;9.23;;;1.50;99.90;;;;;;5112897;28;20411;-65
2023/03/09 01:18:13;;;;;;;14.90;8.25;;;1.60;99.90;;;;;;5111396;28;20051;-64
2023/03/09 01:20:39;;;;;;;16.60;9.52;;;1.50;99.90;;;;;;5109811;28;20046;-64
2023/03/09 01:23:07;;;;;;;15.15;9.25;;;1.60;99.90;;;;;;5111332;28;20053;-65
2023/03/09 01:25:35;;;;;;;16.70;8.82;;;1.40;99.90;;;;;;5109467;28;20059;-65
2023/03/09 01:28:01;;;;;;;14.85;9.52;;;1.30;99.90;;;;;;5111834;28;20047;-64
2023/03/09 01:30:28;;;;;;;15.70;9.88;;;1.30;99.90;;;;;;5112653;28;20044;-64
2023/03/09 01:32:55;;;;;;;14.63;8.57;;;1.30;99.90;;;;;;5111168;28;20449;-64
2023/03/09 01:35:23;;;;;;;18.27;10.02;;;1.20;99.90;;;;;;5110639;28;20043;-64
2023/03/09 01:37:50;;;;;;;12.55;8.77;;;1.30;99.90;;;;;;5111213;28;20060;-64
2023/03/09 01:40:19;;;;;;;14.68;8.88;;;1.20;99.90;;;;;;5112494;28;20560;-65
2023/03/09 01:42:55;;;;;;;17.40;9.23;;;1.20;99.90;;;;;;5111577;28;20488;-64
2023/03/09 01:45:59;;;;;;;16.15;8.43;;;1.10;99.90;;;;;;5111369;28;20491;-64
2023/03/09 01:48:26;;;;;;;14.18;8.77;;;1.10;99.90;;;;;;5111518;28;20457;-64
2023/03/09 01:50:55;;;;;;;15.73;9.23;;;1.00;99.90;;;;;;5111310;28;20040;-65
2023/03/09 01:53:22;;;;;;;15.13;9.18;;;1.00;99.90;;;;;;5112256;28;20456;-64
2023/03/09 01:55:53;;;;;;;14.90;8.82;;;0.90;99.90;;;;;;5114972;28;20574;-64
2023/03/09 01:58:22;;;;;;;16.95;10.02;;;0.90;99.90;;;;;;5116402;28;20528;-65
2023/03/09 02:00:52;;;;;;;15.68;9.48;;;1.50;99.90;;;;;;5115135;28;20445;-64
2023/03/09 02:03:24;;;;;;;19.20;9.32;;;0.70;99.90;;;;;;5114192;28;20105;-64
2023/03/09 02:05:56;;;;;;;17.80;9.90;;;0.70;99.90;;;;;;5116706;28;20056;-64
2023/03/09 02:08:25;;;;;;;16.48;9.38;;;0.60;99.90;;;;;;5112942;28;20047;-64
2023/03/09 02:10:56;;;;;;;14.90;8.77;;;0.60;99.90;;;;;;5114111;28;20047;-64
2023/03/09 02:13:30;;;;;;;15.90;8.98;;;0.60;99.90;;;;;;5116172;28;20492;-64
2023/03/09 02:15:57;;;;;;;17.70;10.52;;;0.60;99.90;;;;;;5114677;28;20047;-64
2023/03/09 02:18:24;;;;;;;15.88;9.68;;;0.50;99.90;;;;;;5114249;28;20059;-64
2023/03/09 02:21:01;;;;;;;16.20;8.77;;;0.50;99.90;;;;;;5114783;28;20062;-63
2023/03/09 02:23:38;;;;;;;17.15;9.23;;;0.60;99.90;;;;;;5114320;28;20043;-65
2023/03/09 02:26:14;;;;;;;17.23;9.20;;;0.50;99.90;;;;;;5115068;28;20441;-64
2023/03/09 02:28:42;;;;;;;15.70;8.48;;;0.60;99.90;;;;;;5114731;28;20051;-64
2023/03/09 02:31:10;;;;;;;15.77;9.15;;;0.60;99.90;;;;;;5115202;28;20043;-64
2023/03/09 02:33:37;;;;;;;16.25;10.40;;;0.60;99.90;;;;;;5115725;28;20044;-64
2023/03/09 02:36:04;;;;;;;16.38;9.30;;;0.70;99.90;;;;;;5114678;28;20047;-64
2023/03/09 02:38:31;;;;;;;17.25;10.30;;;0.70;99.90;;;;;;5114615;28;20563;-64
2023/03/09 02:41:00;;;;;;;17.27;9.85;;;0.70;99.90;;;;;;5115729;28;20048;-64
2023/03/09 02:43:31;;;;;;;16.60;9.18;;;0.70;99.90;;;;;;5115353;28;20403;-64
2023/03/09 02:45:59;;;;;;;19.63;11.07;;;0.70;99.90;;;;;;5114983;28;20104;-64
2023/03/09 02:48:26;;;;;;;17.67;10.73;;;0.70;99.90;;;;;;5114391;28;20047;-65
2023/03/09 02:50:53;;;;;;;16.92;10.52;;;0.70;99.90;;;;;;5114029;28;20047;-64
2023/03/09 02:53:20;;;;;;;18.65;10.05;;;0.70;99.90;;;;;;5114854;28;20117;-64
2023/03/09 02:55:47;;;;;;;15.70;9.07;;;0.70;99.90;;;;;;5114182;28;20055;-64
2023/03/09 02:58:14;;;;;;;17.73;10.48;;;0.70;99.90;;;;;;5115350;28;20445;-63
2023/03/09 03:00:41;;;;;;;16.65;10.98;;;0.70;99.90;;;;;;5114278;28;20043;-64
2023/03/09 03:03:09;;;;;;;19.00;10.85;;;0.70;99.90;;;;;;5114751;28;20491;-63
2023/03/09 03:05:36;;;;;;;19.63;10.80;;;0.70;99.90;;;;;;5114038;28;20518;-64
2023/03/09 03:08:03;;;;;;;18.40;10.30;;;0.70;99.90;;;;;;5114626;28;20044;-64
2023/03/09 03:10:30;;;;;;;22.67;12.02;;;0.70;99.90;;;;;;5112781;28;20096;-64
2023/03/09 03:12:57;;;;;;;22.67;11.30;;;0.70;99.90;;;;;;5112968;28;20051;-64
2023/03/09 03:15:24;;;;;;;19.65;11.00;;;0.70;99.90;;;;;;5114888;28;20051;-65
2023/03/09 03:17:51;;;;;;;21.77;11.02;;;0.70;99.90;;;;;;5113391;28;20055;-65
2023/03/09 03:20:20;;;;;;;20.50;10.77;;;0.70;99.90;;;;;;5114208;28;20043;-66
2023/03/09 03:22:47;;;;;;;21.55;11.85;;;0.70;99.90;;;;;;5114367;28;20442;-65
2023/03/09 03:25:16;;;;;;;22.60;11.85;;;0.80;99.90;;;;;;5113700;28;20078;-65
2023/03/09 03:27:43;;;;;;;22.70;11.27;;;0.80;99.90;;;;;;5112341;28;20113;-65
2023/03/09 03:30:11;;;;;;;19.60;11.50;;;0.70;99.90;;;;;;5113387;28;20078;-65
2023/03/09 03:32:38;;;;;;;22.02;11.93;;;0.80;99.90;;;;;;5114405;28;20101;-64
2023/03/09 03:35:06;;;;;;;23.10;11.88;;;0.90;99.90;;;;;;5113927;28;20430;-64
2023/03/09 03:37:34;;;;;;;24.40;13.13;;;0.80;99.90;;;;;;5114745;28;20073;-64
2023/03/09 03:40:06;;;;;;;18.45;10.70;;;0.80;99.90;;;;;;5112066;28;20051;-64
2023/03/09 03:42:33;;;;;;;22.92;12.68;;;0.80;99.90;;;;;;5113615;28;20130;-64
2023/03/09 03:44:59;;;;;;;20.83;11.25;;;0.80;99.90;;;;;;5114143;28;20489;-64
2023/03/09 03:47:26;;;;;;;23.70;13.27;;;0.80;99.90;;;;;;5112874;28;20100;-64
2023/03/09 03:49:53;;;;;;;21.10;11.48;;;0.80;99.90;;;;;;5113696;28;20059;-64
2023/03/09 03:52:20;;;;;;;21.23;12.32;;;0.80;99.90;;;;;;5113874;28;20518;-64
2023/03/09 03:54:48;;;;;;;20.92;12.68;;;1.00;99.90;;;;;;5112791;28;20096;-64
2023/03/09 03:57:15;;;;;;;27.02;13.77;;;0.80;99.90;;;;;;5110023;28;20552;-64
2023/03/09 03:59:42;;;;;;;25.65;13.13;;;0.80;99.90;;;;;;5112895;28;20121;-64
2023/03/09 04:02:09;;;;;;;21.63;12.32;;;0.80;99.90;;;;;;5109879;28;20051;-65
2023/03/09 04:04:36;;;;;;;20.08;11.75;;;0.80;99.90;;;;;;5113583;28;20446;-65
2023/03/09 04:07:03;;;;;;;21.38;12.65;;;0.80;99.90;;;;;;5113812;28;20043;-65
2023/03/09 04:09:30;;;;;;;23.35;12.60;;;0.80;99.90;;;;;;5113292;28;20066;-65
2023/03/09 04:11:58;;;;;;;23.35;12.43;;;0.80;99.90;;;;;;5113483;28;20487;-65
2023/03/09 04:14:25;;;;;;;24.92;13.43;;;0.80;99.90;;;;;;5113529;28;20105;-64
2023/03/09 04:16:52;;;;;;;21.95;12.80;;;0.80;99.90;;;;;;5112003;28;20471;-65
2023/03/09 04:19:19;;;;;;;21.90;12.43;;;0.80;99.90;;;;;;5112379;28;20096;-65
2023/03/09 04:21:46;;;;;;;24.13;13.30;;;0.80;99.90;;;;;;5113374;28;20108;-65
2023/03/09 04:24:13;;;;;;;24.63;14.02;;;0.80;99.90;;;;;;5112564;28;20048;-64
2023/03/09 04:26:40;;;;;;;24.30;13.63;;;0.80;99.90;;;;;;5113362;28;20441;-65
2023/03/09 04:29:08;;;;;;;23.17;13.50;;;0.90;99.90;;;;;;5111279;28;20055;-64
2023/03/09 04:31:35;;;;;;;25.52;13.30;;;0.90;99.90;;;;;;5111550;28;20479;-64
2023/03/09 04:34:02;;;;;;;27.30;14.43;;;0.80;99.90;;;;;;5112312;28;20195;-64
2023/03/09 04:36:30;;;;;;;22.58;12.93;;;0.80;99.90;;;;;;5112225;28;20163;-63
2023/03/09 04:38:57;;;;;;;25.33;14.10;;;0.80;99.90;;;;;;5111561;28;20048;-64
2023/03/09 04:41:24;;;;;;;22.05;13.25;;;0.80;99.90;;;;;;5112808;28;20040;-64
2023/03/09 04:43:51;;;;;;;25.75;13.68;;;0.80;99.90;;;;;;5112994;28;20062;-64
2023/03/09 04:46:19;;;;;;;22.70;13.15;;;0.80;99.90;;;;;;5111522;28;20487;-64
2023/03/09 04:48:46;;;;;;;27.40;13.93;;;0.80;99.90;;;;;;5109613;28;20059;-64
2023/03/09 04:51:13;;;;;;;22.50;12.77;;;0.90;99.90;;;;;;5093623;28;20043;-64
2023/03/09 04:53:40;;;;;;;24.27;12.93;;;0.80;99.90;;;;;;5104830;28;20051;-64
2023/03/09 04:56:08;;;;;;;24.55;12.85;;;0.80;99.90;;;;;;5106506;28;20051;-64
2023/03/09 04:58:34;;;;;;;24.40;13.15;;;0.70;99.90;;;;;;5104596;28;20055;-64
2023/03/09 05:01:02;;;;;;;26.00;12.85;;;0.70;99.90;;;;;;5105696;28;20101;-64
2023/03/09 05:03:30;;;;;;;24.90;14.10;;;0.70;99.90;;;;;;5106449;28;20043;-64
2023/03/09 05:05:57;;;;;;;25.13;13.18;;;0.70;99.90;;;;;;5107839;28;20059;-64
2023/03/09 05:08:24;;;;;;;24.05;13.50;;;0.70;99.90;;;;;;5105679;28;20048;-64
2023/03/09 05:10:51;;;;;;;22.15;13.15;;;0.70;99.90;;;;;;5106742;28;20055;-65
2023/03/09 05:13:18;;;;;;;24.80;13.05;;;0.90;99.90;;;;;;5104348;28;20052;-64
2023/03/09 05:15:45;;;;;;;25.02;12.48;;;0.70;99.90;;;;;;5108144;28;20043;-63
2023/03/09 05:18:12;;;;;;;22.30;13.05;;;0.70;99.90;;;;;;5107869;28;20112;-63
2023/03/09 05:20:40;;;;;;;20.25;12.00;;;0.70;99.90;;;;;;5107060;28;20044;-64
2023/03/09 05:23:07;;;;;;;21.15;12.05;;;0.70;99.90;;;;;;5105057;28;20511;-64
2023/03/09 05:25:34;;;;;;;22.10;13.18;;;0.70;99.90;;;;;;5106021;28;20040;-64
2023/03/09 05:28:02;;;;;;;28.67;13.70;;;0.70;99.90;;;;;;5105607;28;20051;-64
2023/03/09 05:30:29;;;;;;;22.38;13.15;;;0.70;99.90;;;;;;5107967;28;20091;-64
2023/03/09 05:32:56;;;;;;;21.15;12.18;;;0.70;99.90;;;;;;5105850;28;20059;-65
2023/03/09 05:35:23;;;;;;;21.42;12.45;;;0.70;99.90;;;;;;5106931;28;20053;-64
2023/03/09 05:37:51;;;;;;;22.83;12.48;;;0.70;99.90;;;;;;5104894;28;20051;-64
2023/03/09 05:40:21;;;;;;;25.73;12.32;;;0.70;99.90;;;;;;5105352;28;20043;-64
2023/03/09 05:42:48;;;;;;;22.20;13.00;;;0.60;99.90;;;;;;5102989;28;20047;-64
2023/03/09 05:45:15;;;;;;;20.63;12.70;;;0.60;99.90;;;;;;5103130;28;21016;-64
2023/03/09 05:47:42;;;;;;;22.48;13.02;;;0.60;99.90;;;;;;5103059;28;20556;-64
2023/03/09 05:50:10;;;;;;;21.95;13.38;;;0.70;99.90;;;;;;5107095;28;20039;-64
2023/03/09 05:52:37;;;;;;;21.92;12.40;;;0.70;99.90;;;;;;5107772;28;20056;-64
2023/03/09 05:55:06;;;;;;;26.60;13.32;;;0.70;99.90;;;;;;5103472;28;20418;-64
2023/03/09 05:57:33;;;;;;;21.25;13.32;;;0.70;99.90;;;;;;5105723;28;20048;-64
2023/03/09 06:00:00;;;;;;;23.38;13.63;;;0.70;99.90;;;;;;5104032;28;20384;-64
2023/03/09 06:02:27;;;;;;;24.90;13.68;;;0.70;99.90;;;;;;5102214;28;20039;-64
2023/03/09 06:04:54;;;;;;;22.95;12.68;;;0.70;99.90;;;;;;5102724;28;20830;-64
2023/03/09 06:07:21;;;;;;;19.60;12.10;;;0.70;99.90;;;;;;5106914;28;20048;-65
2023/03/09 06:09:48;;;;;;;25.85;13.50;;;0.80;99.90;;;;;;5103884;28;20495;-65
2023/03/09 06:12:17;;;;;;;22.50;12.23;;;0.80;99.90;;;;;;5104041;28;20118;-64
2023/03/09 06:14:44;;;;;;;18.88;12.25;;;0.80;99.90;;;;;;5103166;28;20178;-65
2023/03/09 06:17:11;;;;;;;22.75;11.88;;;0.80;99.90;;;;;;5104003;28;20044;-65
2023/03/09 06:19:38;;;;;;;20.65;12.10;;;0.80;99.90;;;;;;5107080;28;20115;-65
2023/03/09 06:22:05;;;;;;;20.40;11.52;;;0.80;99.90;;;;;;5104550;28;20050;-65
2023/03/09 06:24:32;;;;;;;20.42;12.00;;;0.80;99.90;;;;;;5104398;28;20036;-64
2023/03/09 06:26:59;;;;;;;19.83;11.43;;;0.80;99.90;;;;;;5104305;28;20044;-65
2023/03/09 06:29:28;;;;;;;21.98;12.25;;;0.80;99.90;;;;;;5109313;28;20087;-64
2023/03/09 06:31:55;;;;;;;21.70;12.35;;;0.80;99.90;;;;;;5104078;28;20052;-65
2023/03/09 06:34:22;;;;;;;20.65;11.93;;;0.80;99.90;;;;;;5105607;28;21288;-64
2023/03/09 06:36:48;;;;;;;21.52;12.82;;;0.80;99.90;;;;;;5105084;28;20063;-64
2023/03/09 06:39:15;;;;;;;21.15;11.68;;;0.90;99.90;;;;;;5102539;28;20060;-63
2023/03/09 06:41:42;;;;;;;18.73;12.15;;;0.90;99.90;;;;;;5107018;28;20499;-65
2023/03/09 06:44:09;;;;;;;21.38;12.05;;;0.90;99.90;;;;;;5106182;28;20051;-65
2023/03/09 06:46:37;;;;;;;18.27;10.77;;;0.90;99.90;;;;;;5110291;28;20044;-64
2023/03/09 06:49:04;;;;;;;19.17;11.60;;;1.00;99.90;;;;;;5111482;28;20735;-64
2023/03/09 06:51:31;;;;;;;19.88;11.23;;;1.00;99.90;;;;;;5109337;28;20101;-64
2023/03/09 06:53:58;;;;;;;24.33;12.80;;;1.00;99.90;;;;;;5107977;28;20105;-64
2023/03/09 06:56:25;;;;;;;17.80;10.77;;;1.10;99.90;;;;;;5107330;28;20506;-64
2023/03/09 06:58:54;;;;;;;21.75;11.32;;;1.10;99.90;;;;;;5107575;28;20427;-65
2023/03/09 07:01:21;;;;;;;19.70;11.60;;;1.10;99.90;;;;;;5112091;28;20051;-65
2023/03/09 07:03:49;;;;;;;18.52;11.80;;;1.20;99.90;;;;;;5108222;28;20062;-64
2023/03/09 07:06:16;;;;;;;16.95;10.55;;;1.20;99.90;;;;;;5106567;28;20051;-64
2023/03/09 07:08:43;;;;;;;17.88;10.73;;;1.30;99.90;;;;;;5107847;28;20059;-64
2023/03/09 07:11:10;;;;;;;18.00;11.75;;;1.30;99.90;;;;;;5105471;28;20054;-63
2023/03/09 07:13:37;;;;;;;20.63;11.18;;;1.40;99.90;;;;;;5107313;28;20532;-64
2023/03/09 07:16:05;;;;;;;19.35;11.73;;;1.60;99.90;;;;;;5108297;28;20051;-64
2023/03/09 07:18:32;;;;;;;16.83;10.32;;;1.80;99.90;;;;;;5110664;28;20043;-64
2023/03/09 07:21:02;;;;;;;18.80;11.18;;;2.00;99.90;;;;;;5107274;28;20446;-64
2023/03/09 07:23:29;;;;;;;15.33;10.03;;;2.20;99.90;;;;;;5108663;28;20059;-64
2023/03/09 07:26:00;;;;;;;18.27;9.93;;;3.00;99.90;;;;;;5106333;28;20044;-64
2023/03/09 07:28:27;;;;;;;18.08;10.77;;;3.70;99.90;;;;;;5106362;28;20044;-63
2023/03/09 07:30:54;;;;;;;25.33;10.82;;;4.30;99.90;;;;;;5107182;28;20047;-64
2023/03/09 07:33:21;;;;;;;15.75;11.35;;;4.80;99.90;;;;;;5106070;28;20409;-63
2023/03/09 07:35:48;;;;;;;14.48;9.05;;;4.70;99.90;;;;;;5109113;28;20579;-64
2023/03/09 07:38:16;;;;;;;16.35;9.65;;;4.70;99.90;;;;;;5106919;28;20071;-64
2023/03/09 07:40:43;;;;;;;14.70;10.25;;;4.50;99.90;;;;;;5103463;28;20043;-64
2023/03/09 07:43:12;;;;;;;18.98;10.05;;;4.30;99.90;;;;;;5107522;28;20048;-64
2023/03/09 07:45:39;;;;;;;15.80;9.45;;;4.00;99.90;;;;;;5106760;28;20622;-64
2023/03/09 07:48:06;;;;;;;13.85;9.23;;;3.80;99.90;;;;;;5104454;28;20445;-64
2023/03/09 07:50:33;;;;;;;16.20;9.65;;;4.10;99.90;;;;;;5106225;28;20412;-63
2023/03/09 07:53:00;;;;;;;14.00;9.25;;;4.60;99.90;;;;;;5105966;28;20101;-64
2023/03/09 07:55:29;;;;;;;14.30;9.90;;;5.20;99.90;;;;;;5107424;28;20043;-64
2023/03/09 07:57:56;;;;;;;14.93;10.02;;;5.80;99.90;;;;;;5140817;27;20040;-64
2023/03/09 08:00:24;;;;;;;14.35;9.43;;;5.60;99.90;;;;;;5108205;28;20055;-64
2023/03/09 08:02:51;;;;;;;11.18;8.30;;;5.30;99.90;;;;;;5105153;28;20043;-65
2023/03/09 08:05:18;;;;;;;14.00;9.30;;;4.90;99.90;;;;;;5103870;28;20055;-65
2023/03/09 08:07:46;;;;;;;13.23;9.45;;;5.00;99.90;;;;;;5106456;28;20093;-66
2023/03/09 08:10:14;;;;;;;14.57;9.13;;;4.80;99.90;;;;;;5106272;28;20043;-65
2023/03/09 08:12:43;;;;;;;12.55;8.57;;;5.00;99.90;;;;;;5104441;28;20134;-64
2023/03/09 08:15:11;;;;;;;14.20;9.90;;;5.10;99.90;;;;;;5099483;28;20047;-65
2023/03/09 08:17:39;;;;;;;12.88;8.15;;;5.40;99.90;;;;;;5105566;28;20449;-64
2023/03/09 08:20:08;;;;;;;12.60;8.38;;;5.40;99.90;;;;;;5141101;27;20503;-65
2023/03/09 08:22:36;;;;;;;14.77;8.75;;;5.20;99.90;;;;;;5101023;28;20075;-65
2023/03/09 08:25:04;;;;;;;11.38;7.90;;;5.60;99.90;;;;;;5105041;28;20416;-65
2023/03/09 08:27:37;;;;;;;12.32;8.05;;;5.60;99.90;;;;;;5106580;28;20046;-65
2023/03/09 08:30:06;;;;;;;16.45;7.95;;;5.70;99.90;;;;;;5109020;28;20044;-65
2023/03/09 08:32:34;;;;;;;11.50;8.10;;;6.10;99.90;;;;;;5105653;28;20048;-65
2023/03/09 08:35:01;;;;;;;13.27;7.90;;;6.30;99.90;;;;;;5102945;28;20048;-64
2023/03/09 08:37:28;;;;;;;11.65;8.20;;;6.70;99.90;;;;;;5104607;28;20070;-65
2023/03/09 08:39:55;;;;;;;12.45;6.72;;;7.40;99.90;;;;;;5103381;28;20043;-65
2023/03/09 08:42:22;;;;;;;13.13;7.68;;;7.70;99.90;;;;;;5099193;28;20051;-64
2023/03/09 08:44:49;;;;;;;11.10;6.32;;;7.90;99.90;;;;;;5102980;28;20153;-65
2023/03/09 08:47:18;;;;;;;9.98;7.15;;;8.20;99.90;;;;;;5106628;28;20060;-64
2023/03/09 08:49:47;;;;;;;10.95;7.00;;;8.40;99.90;;;;;;5108721;28;20055;-64
2023/03/09 08:52:16;;;;;;;9.50;6.40;;;8.50;99.90;;;;;;5103224;28;20059;-65
2023/03/09 08:54:49;;;;;;;11.60;8.02;;;8.40;99.90;;;;;;5103406;28;20050;-64
2023/03/09 08:57:16;;;;;;;10.55;7.55;;;8.50;99.90;;;;;;5103937;28;20051;-64
2023/03/09 08:59:42;;;;;;;9.20;6.85;;;8.80;99.90;;;;;;5139082;27;20104;-65
2023/03/09 09:02:14;;;;;;;9.65;6.82;;;9.30;99.90;;;;;;5102280;28;20191;-64
2023/03/09 09:04:42;;;;;;;9.10;7.22;;;9.30;99.90;;;;;;5101534;28;20059;-64
2023/03/09 09:07:09;;;;;;;14.15;7.70;;;9.40;99.90;;;;;;5105142;28;20051;-64
2023/03/09 09:09:36;;;;;;;9.48;7.22;;;9.80;99.90;;;;;;5106125;28;20084;-64
2023/03/09 09:12:03;;;;;;;10.98;7.38;;;10.50;99.90;;;;;;5102727;28;20495;-64
2023/03/09 09:14:30;;;;;;;9.93;7.25;;;10.80;99.90;;;;;;5107807;28;20044;-64
2023/03/09 09:16:57;;;;;;;9.65;7.20;;;11.40;99.90;;;;;;5104996;28;20047;-64
2023/03/09 09:19:24;;;;;;;11.70;7.43;;;11.80;99.30;;;;;;5108802;28;20127;-64
2023/03/09 09:21:54;;;;;;;10.50;6.97;;;11.70;98.40;;;;;;5108154;28;20406;-65
2023/03/09 09:24:21;;;;;;;13.40;7.15;;;11.40;98.70;;;;;;5102027;28;20583;-64
2023/03/09 09:26:48;;;;;;;9.38;6.55;;;11.60;97.30;;;;;;5138301;27;20064;-64
2023/03/09 09:29:15;;;;;;;10.75;7.68;;;11.70;97.50;;;;;;5109164;28;20051;-64
2023/03/09 09:31:43;;;;;;;8.40;6.40;;;12.00;97.70;;;;;;5103468;28;20420;-64
2023/03/09 09:34:09;;;;;;;10.93;6.45;;;12.40;95.60;;;;;;5101447;28;20053;-64
2023/03/09 09:36:36;;;;;;;8.73;6.43;;;12.50;96.60;;;;;;5106026;28;20048;-65
2023/03/09 09:39:04;;;;;;;8.82;6.70;;;12.20;96.20;;;;;;5106395;28;20513;-64
2023/03/09 09:41:39;;;;;;;8.13;5.90;;;11.60;95.90;;;;;;5105554;28;20044;-64
2023/03/09 09:44:11;;;;;;;8.63;6.15;;;11.00;96.70;;;;;;5102153;28;20051;-64
2023/03/09 09:46:40;;;;;;;7.80;5.38;;;10.70;97.80;;;;;;5135964;27;20541;-63
2023/03/09 09:49:07;;;;;;;6.50;5.10;;;11.00;96.40;;;;;;5106526;28;20138;-63
2023/03/09 09:51:49;;;;;;;6.82;4.40;;;11.10;95.70;;;;;;5104565;28;20051;-64
2023/03/09 09:54:28;;;;;;;9.30;5.78;;;12.40;96.20;;;;;;5100753;28;20098;-64
2023/03/09 09:56:59;;;;;;;7.55;4.80;;;11.70;94.60;;;;;;5102126;28;20048;-63
2023/03/09 09:59:34;;;;;;;10.05;5.57;;;12.00;94.50;;;;;;5106349;28;20058;-64
2023/03/09 10:02:19;;;;;;;8.40;5.43;;;13.10;93.70;;;;;;5104615;28;20079;-64
2023/03/09 10:04:50;;;;;;;7.45;5.40;;;13.80;93.70;;;;;;5102121;28;20491;-63
2023/03/09 10:07:19;;;;;;;6.30;4.97;;;14.90;91.20;;;;;;5102489;28;20043;-64
2023/03/09 10:09:51;;;;;;;6.63;4.78;;;15.60;90.50;;;;;;5101150;28;20051;-65
2023/03/09 10:12:18;;;;;;;5.22;4.43;;;15.70;88.20;;;;;;5105035;28;20039;-64
2023/03/09 10:14:51;;;;;;;6.65;4.80;;;14.30;83.80;;;;;;5108631;28;20101;-64
2023/03/09 10:17:22;;;;;;;8.88;4.97;;;12.90;89.10;;;;;;5139089;27;20043;-64
2023/03/09 10:19:50;;;;;;;7.45;4.75;;;11.90;90.30;;;;;;5110587;28;20052;-64
2023/03/09 10:22:22;;;;;;;9.95;5.43;;;10.70;92.00;;;;;;5105484;28;20545;-65
2023/03/09 10:24:51;;;;;;;7.72;4.32;;;10.20;92.30;;;;;;5105637;28;20085;-65
2023/03/09 10:27:21;;;;;;;8.07;4.90;;;10.20;93.60;;;;;;5106064;28;20044;-64
2023/03/09 10:29:52;;;;;;;6.47;4.53;;;10.50;93.80;;;;;;5112307;28;20063;-65
2023/03/09 10:32:22;;;;;;;7.97;4.55;;;11.00;93.00;;;;;;5106513;28;20040;-66
2023/03/09 10:34:59;;;;;;;6.10;4.70;;;11.60;92.90;;;;;;5106345;28;20051;-65
2023/03/09 10:37:33;;;;;;;5.30;3.65;;;11.80;91.70;;;;;;5106037;28;20040;-65
2023/03/09 10:40:05;;;;;;;7.25;3.70;;;11.70;92.30;;;;;;5106428;28;20062;-65
2023/03/09 10:42:37;;;;;;;6.60;4.05;;;11.30;92.70;;;;;;5108138;28;20454;-65
2023/03/09 10:45:15;;;;;;;5.30;3.80;;;11.10;92.40;;;;;;5104661;28;20047;-65
2023/03/09 10:47:56;;;;;;;7.45;4.65;;;11.00;92.70;;;;;;5111039;28;20043;-64
2023/03/09 10:50:25;;;;;;;6.82;3.90;;;11.10;92.90;;;;;;5105545;28;20048;-64
2023/03/09 10:52:53;;;;;;;7.32;4.35;;;11.30;93.10;;;;;;5106251;28;20480;-64
2023/03/09 10:55:41;;;;;;;5.55;3.90;;;11.20;92.80;;;;;;5107480;28;20104;-64
2023/03/09 10:58:17;;;;;;;5.15;4.03;;;11.10;92.30;;;;;;5105683;28;20080;-64
2023/03/09 11:01:02;;;;;;;8.65;4.95;;;10.60;92.40;;;;;;5106470;28;20066;-65
2023/03/09 11:03:35;;;;;;;5.40;3.90;;;9.70;93.30;;;;;;5107983;28;20059;-64
2023/03/09 11:06:25;;;;;;;7.35;3.95;;;9.80;94.40;;;;;;5106789;28;20507;-64
2023/03/09 11:09:05;;;;;;;6.70;3.78;;;9.90;94.40;;;;;;5104672;28;20584;-64
2023/03/09 11:11:34;;;;;;;5.55;4.20;;;10.00;94.60;;;;;;5107785;28;20044;-66
2023/03/09 11:14:02;;;;;;;5.32;3.95;;;10.20;94.20;;;;;;5107592;28;20044;-65
2023/03/09 11:16:34;;;;;;;5.68;3.40;;;9.60;94.30;;;;;;5141570;27;20044;-64
2023/03/09 11:19:12;;;;;;;6.93;4.22;;;9.20;94.30;;;;;;5108324;28;20047;-65
2023/03/09 11:21:44;;;;;;;7.47;4.55;;;8.40;95.30;;;;;;5106260;28;20551;-64
2023/03/09 11:24:14;;;;;;;7.43;4.53;;;8.50;95.70;;;;;;5104708;28;20129;-65
2023/03/09 11:26:47;;;;;;;6.47;4.50;;;8.60;96.30;;;;;;5105901;28;20117;-65
2023/03/09 11:29:24;;;;;;;6.53;5.10;;;8.60;96.80;;;;;;5108699;28;20047;-65
2023/03/09 11:31:51;;;;;;;6.63;4.40;;;8.70;96.70;;;;;;5108879;28;20516;-65
2023/03/09 11:34:24;;;;;;;7.35;4.82;;;8.40;96.70;;;;;;5103038;28;20056;-65
2023/03/09 11:36:56;;;;;;;8.52;4.70;;;8.10;98.20;;;;;;5102964;28;20048;-64
2023/03/09 11:39:29;;;;;;;7.40;4.10;;;7.60;98.00;;;;;;5106099;28;20064;-64
2023/03/09 11:42:00;;;;;;;7.05;4.35;;;7.80;98.70;;;;;;5105184;28;20108;-65
2023/03/09 11:44:32;;;;;;;7.45;5.07;;;7.30;99.30;;;;;;5104231;28;20112;-64
2023/03/09 11:47:04;;;;;;;8.95;5.07;;;7.20;99.60;;;;;;5102594;28;20043;-63
2023/03/09 11:49:32;;;;;;;5.28;3.90;;;7.30;99.90;;;;;;5108889;28;20089;-64
2023/03/09 11:52:00;;;;;;;7.22;5.35;;;7.80;99.90;;;;;;5104455;28;20100;-64
2023/03/09 11:54:30;;;;;;;6.68;4.40;;;7.90;99.90;;;;;;5105091;28;20071;-64
2023/03/09 11:57:03;;;;;;;6.30;4.65;;;7.90;99.90;;;;;;5109567;28;20112;-65
2023/03/09 11:59:36;;;;;;;5.57;4.07;;;7.80;99.90;;;;;;5109002;28;20296;-64
2023/03/09 12:02:15;;;;;;;5.40;4.30;;;7.80;99.90;;;;;;5112073;28;20043;-64
2023/03/09 12:04:45;;;;;;;8.27;4.65;;;7.90;99.90;;;;;;5141077;27;20060;-65
2023/03/09 12:07:18;;;;;;;7.97;4.63;;;8.00;99.90;;;;;;5113605;28;20471;-64
2023/03/09 12:09:53;;;;;;;6.82;4.20;;;8.00;99.90;;;;;;5109649;28;20055;-65
2023/03/09 12:12:27;;;;;;;5.35;4.00;;;7.80;99.90;;;;;;5113451;28;20047;-65
2023/03/09 12:14:58;;;;;;;6.53;4.55;;;7.50;99.70;;;;;;5111093;28;20419;-65
2023/03/09 12:17:28;;;;;;;;;;;7.30;99.90;;;;;;5113788;28;20421;-65
2023/03/09 12:19:56;;;;;;;7.95;4.63;;;7.10;99.90;;;;;;5112021;28;19919;-65
2023/03/09 12:22:30;;;;;;;5.20;4.18;;;7.40;99.90;;;;;;5111969;28;20047;-65
2023/03/09 12:25:00;;;;;;;6.40;4.32;;;7.50;99.90;;;;;;5110124;28;20055;-66
2023/03/09 12:27:31;;;;;;;4.75;3.80;;;7.50;99.90;;;;;;5113487;28;20100;-65
2023/03/09 12:30:10;;;;;;;5.80;4.28;;;7.10;99.90;;;;;;5112740;28;20130;-65
2023/03/09 12:32:40;;;;;;;6.57;4.75;;;7.00;99.90;;;;;;5112389;28;20437;-65
2023/03/09 12:35:40;;;;;;;8.68;4.72;;;6.80;99.90;;;;;;5111343;28;20180;-66
2023/03/09 12:38:21;;;;;;;6.60;4.10;;;7.00;99.90;;;;;;5088270;28;20089;-66
2023/03/09 12:40:49;;;;;;;6.60;4.10;;;6.80;99.90;;;;;;5113411;28;20134;-65
2023/03/09 12:43:53;;;;;;;6.65;4.07;;;6.60;99.90;;;;;;5112545;28;20084;-66
2023/03/09 12:46:51;;;;;;;7.18;4.28;;;6.70;99.90;;;;;;5111861;28;20036;-66
2023/03/09 12:49:20;;;;;;;8.95;4.20;;;6.60;99.90;;;;;;5111823;28;20496;-65
2023/03/09 12:51:58;;;;;;;7.20;4.47;;;6.70;99.90;;;;;;5111003;28;20047;-65
2023/03/09 12:54:25;;;;;;;5.40;3.88;;;6.50;99.90;;;;;;5110739;28;20051;-65
2023/03/09 12:56:53;;;;;;;5.03;3.72;;;6.50;99.90;;;;;;5112152;28;20051;-66